createdAt,value
2023-01-09T00:00:16.503Z,2.67
2023-01-09T00:02:45.751Z,2.83
2023-01-09T00:05:16.923Z,3.27
2023-01-09T00:07:46.000Z,2.20
2023-01-09T00:10:16.440Z,3.30
2023-01-09T00:12:45.516Z,4.97
2023-01-09T00:15:14.566Z,2.13
2023-01-09T00:17:43.772Z,2.27
2023-01-09T00:20:13.215Z,2.93
2023-01-09T00:22:42.355Z,1.73
2023-01-09T00:25:11.874Z,1.40
2023-01-09T00:27:42.281Z,2.10
2023-01-09T00:30:12.535Z,2.53
2023-01-09T00:32:41.935Z,1.67
2023-01-09T00:35:15.335Z,3.10
2023-01-09T00:37:44.468Z,2.03
2023-01-09T00:40:16.813Z,2.47
2023-01-09T00:42:50.571Z,3.93
2023-01-09T00:45:28.476Z,7.77
2023-01-09T00:48:02.253Z,2.93
2023-01-09T00:50:34.363Z,2.17
2023-01-09T00:53:09.412Z,1.63
2023-01-09T00:55:39.263Z,3.50
2023-01-09T00:58:10.034Z,2.80
2023-01-09T01:00:39.101Z,3.17
2023-01-09T01:03:08.163Z,2.27
2023-01-09T01:05:54.625Z,2.83
2023-01-09T01:08:23.672Z,3.27
2023-01-09T01:10:52.795Z,3.40
2023-01-09T01:13:23.327Z,2.77
2023-01-09T01:15:52.412Z,2.67
2023-01-09T01:18:21.463Z,3.03
2023-01-09T01:20:50.464Z,2.43
2023-01-09T01:23:19.521Z,2.10
2023-01-09T01:25:49.147Z,3.90
2023-01-09T01:28:19.183Z,3.53
2023-01-09T01:30:49.684Z,2.30
2023-01-09T01:33:18.788Z,2.67
2023-01-09T01:35:47.877Z,5.00
2023-01-09T01:38:16.938Z,2.77
2023-01-09T01:40:46.003Z,2.03
2023-01-09T01:43:15.075Z,4.73
2023-01-09T01:45:44.192Z,2.90
2023-01-09T01:48:17.384Z,2.57
2023-01-09T01:50:49.374Z,3.53
2023-01-09T01:53:22.641Z,4.07
2023-01-09T01:56:03.632Z,2.37
2023-01-09T01:58:33.050Z,2.43
2023-01-09T02:01:03.415Z,3.23
2023-01-09T02:03:35.187Z,2.67
2023-01-09T02:06:05.238Z,2.13
2023-01-09T02:08:34.444Z,3.43
2023-01-09T02:11:05.477Z,4.37
2023-01-09T02:13:38.562Z,3.03
2023-01-09T02:16:22.901Z,2.50
2023-01-09T02:19:01.113Z,3.20
2023-01-09T02:21:40.880Z,2.40
2023-01-09T02:24:21.250Z,3.40
2023-01-09T02:27:25.211Z,2.83
2023-01-09T02:30:32.773Z,4.87
2023-01-09T02:33:16.781Z,2.00
2023-01-09T02:36:01.368Z,1.67
2023-01-09T02:38:38.093Z,3.17
2023-01-09T02:41:14.129Z,4.23
2023-01-09T02:43:43.189Z,5.27
2023-01-09T02:46:22.239Z,3.70
2023-01-09T02:48:55.060Z,2.07
2023-01-09T02:51:30.601Z,2.77
2023-01-09T02:54:26.243Z,5.40
2023-01-09T02:57:18.976Z,1.83
2023-01-09T03:00:01.970Z,3.97
2023-01-09T03:02:43.026Z,4.97
2023-01-09T03:05:20.257Z,3.80
2023-01-09T03:07:57.613Z,2.60
2023-01-09T03:10:33.012Z,3.83
2023-01-09T03:13:04.245Z,4.07
2023-01-09T03:15:37.249Z,3.17
2023-01-09T03:18:11.658Z,4.43
2023-01-09T03:20:42.332Z,4.27
2023-01-09T03:23:11.398Z,3.47
2023-01-09T03:25:40.419Z,5.13
2023-01-09T03:28:19.422Z,2.00
2023-01-09T03:30:48.436Z,1.80
2023-01-09T03:33:18.834Z,4.93
2023-01-09T03:35:48.060Z,2.10
2023-01-09T03:38:17.186Z,5.47
2023-01-09T03:40:46.301Z,2.37
2023-01-09T03:43:15.370Z,2.77
2023-01-09T03:45:44.656Z,3.60
2023-01-09T03:48:13.733Z,3.10
2023-01-09T03:50:45.964Z,2.17
2023-01-09T03:53:15.185Z,2.10
2023-01-09T03:55:46.974Z,2.30
2023-01-09T03:58:16.920Z,2.30
2023-01-09T04:00:48.763Z,5.33
2023-01-09T04:03:19.099Z,1.90
2023-01-09T04:05:50.620Z,2.00
2023-01-09T04:08:20.306Z,3.47
2023-01-09T04:10:50.395Z,2.73
2023-01-09T04:13:19.812Z,2.03
2023-01-09T04:15:49.039Z,4.93
2023-01-09T04:18:18.202Z,2.80
2023-01-09T04:20:50.177Z,2.40
2023-01-09T04:23:19.269Z,2.80
2023-01-09T04:25:48.996Z,1.77
2023-01-09T04:28:18.022Z,1.87
2023-01-09T04:30:47.061Z,1.93
2023-01-09T04:33:16.092Z,1.30
2023-01-09T04:35:45.147Z,3.60
2023-01-09T04:38:15.667Z,2.80
2023-01-09T04:40:44.725Z,1.80
2023-01-09T04:43:13.782Z,1.80
2023-01-09T04:45:42.832Z,4.43
2023-01-09T04:48:12.023Z,2.60
2023-01-09T04:50:41.133Z,2.60
2023-01-09T04:53:10.243Z,3.00
2023-01-09T04:55:42.922Z,4.93
2023-01-09T04:58:11.913Z,2.93
2023-01-09T05:00:40.973Z,3.57
2023-01-09T05:03:10.019Z,1.57
2023-01-09T05:05:39.079Z,2.93
2023-01-09T05:08:08.709Z,1.37
2023-01-09T05:10:39.086Z,3.13
2023-01-09T05:13:08.200Z,2.37
2023-01-09T05:15:37.256Z,2.37
2023-01-09T05:18:06.420Z,1.90
2023-01-09T05:20:35.549Z,2.13
2023-01-09T05:23:04.792Z,2.47
2023-01-09T05:25:33.922Z,3.13
2023-01-09T05:28:04.330Z,2.33
2023-01-09T05:30:33.361Z,2.90
2023-01-09T05:33:02.518Z,4.20
2023-01-09T05:35:31.793Z,1.50
2023-01-09T05:38:00.883Z,2.40
2023-01-09T05:40:39.632Z,2.27
2023-01-09T05:43:10.726Z,3.47
2023-01-09T05:45:39.807Z,1.57
2023-01-09T05:48:08.851Z,2.30
2023-01-09T05:50:37.888Z,2.27
2023-01-09T05:53:07.450Z,4.03
2023-01-09T05:55:36.534Z,1.43
2023-01-09T05:58:05.642Z,3.07
2023-01-09T06:00:36.858Z,2.60
2023-01-09T06:03:06.078Z,4.40
2023-01-09T06:05:35.226Z,2.57
2023-01-09T06:08:04.287Z,0.90
2023-01-09T06:10:33.297Z,1.30
2023-01-09T06:13:02.721Z,1.00
2023-01-09T06:15:31.735Z,0.80
2023-01-09T06:18:02.119Z,1.03
2023-01-09T06:20:31.226Z,1.30
2023-01-09T06:23:00.284Z,1.73
2023-01-09T06:25:29.338Z,6.60
2023-01-09T06:27:58.613Z,0.50
2023-01-09T06:30:28.125Z,0.50
2023-01-09T06:32:57.423Z,0.77
2023-01-09T06:35:28.115Z,1.17
2023-01-09T06:37:58.450Z,0.60
2023-01-09T06:40:27.830Z,0.50
2023-01-09T06:42:57.116Z,0.60
2023-01-09T06:45:26.595Z,1.30
2023-01-09T06:47:56.208Z,1.73
2023-01-09T06:50:26.860Z,1.50
2023-01-09T06:52:56.127Z,1.27
2023-01-09T06:55:26.444Z,1.13
2023-01-09T06:57:55.739Z,1.37
2023-01-09T07:00:25.263Z,0.80
2023-01-09T07:02:54.318Z,1.00
2023-01-09T07:05:23.405Z,0.80
2023-01-09T07:07:53.794Z,1.07
2023-01-09T07:10:22.988Z,0.80
2023-01-09T07:12:52.060Z,0.67
2023-01-09T07:15:21.309Z,1.77
2023-01-09T07:17:52.020Z,3.67
2023-01-09T07:20:22.462Z,1.40
2023-01-09T07:22:53.892Z,1.27
2023-01-09T07:25:23.153Z,1.23
2023-01-09T07:27:52.210Z,0.90
2023-01-09T07:30:21.292Z,0.77
2023-01-09T07:32:50.375Z,1.30
2023-01-09T07:35:19.508Z,1.00
2023-01-09T07:37:48.680Z,1.00
2023-01-09T07:40:19.349Z,1.43
2023-01-09T07:42:48.376Z,2.37
2023-01-09T07:45:17.686Z,3.10
2023-01-09T07:47:46.782Z,2.70
2023-01-09T07:50:15.921Z,2.33
2023-01-09T07:52:46.415Z,3.00
2023-01-09T07:55:17.481Z,4.30
2023-01-09T07:57:51.968Z,3.73
2023-01-09T08:00:22.044Z,7.53
2023-01-09T08:02:54.017Z,4.87
2023-01-09T08:05:23.281Z,4.33
2023-01-09T08:07:52.346Z,5.20
2023-01-09T08:10:21.783Z,4.57
2023-01-09T08:12:52.281Z,3.93
2023-01-09T08:15:21.334Z,7.37
2023-01-09T08:17:50.372Z,7.63
2023-01-09T08:20:19.862Z,7.37
2023-01-09T08:22:53.923Z,10.03
2023-01-09T08:25:23.279Z,8.00
2023-01-09T08:27:53.676Z,5.87
2023-01-09T08:30:22.829Z,39.47
2023-01-09T08:32:53.442Z,8.47
2023-01-09T08:35:22.582Z,12.30
2023-01-09T08:37:51.764Z,27.73
2023-01-09T08:40:21.039Z,11.67
2023-01-09T08:43:07.497Z,8.27
2023-01-09T08:45:55.481Z,8.73
2023-01-09T08:48:24.636Z,10.13
2023-01-09T08:50:54.276Z,6.50
2023-01-09T08:53:23.381Z,9.17
2023-01-09T08:55:52.407Z,14.73
2023-01-09T08:58:21.518Z,9.47
2023-01-09T09:00:51.898Z,8.50
2023-01-09T09:03:21.726Z,6.97
2023-01-09T09:05:50.766Z,11.40
2023-01-09T09:08:20.240Z,15.77
2023-01-09T09:10:49.266Z,7.40
2023-01-09T09:13:18.294Z,8.80
2023-01-09T09:15:47.540Z,11.17
2023-01-09T09:18:18.348Z,12.57
2023-01-09T09:20:47.369Z,8.30
2023-01-09T09:23:16.394Z,5.60
2023-01-09T09:25:45.481Z,13.03
2023-01-09T09:28:14.697Z,9.20
2023-01-09T09:30:43.719Z,9.60
2023-01-09T09:33:12.802Z,16.00
2023-01-09T09:35:43.485Z,10.97
2023-01-09T09:38:13.285Z,9.97
2023-01-09T09:41:07.507Z,12.13
2023-01-09T09:44:14.771Z,7.43
2023-01-09T09:46:51.444Z,6.53
2023-01-09T09:49:29.213Z,6.90
2023-01-09T09:52:14.773Z,9.30
2023-01-09T09:54:49.921Z,7.03
2023-01-09T09:57:24.273Z,9.20
2023-01-09T09:59:54.419Z,8.20
2023-01-09T10:02:30.095Z,13.73
2023-01-09T10:05:06.278Z,12.03
2023-01-09T10:07:44.509Z,9.53
2023-01-09T10:10:20.567Z,7.93
2023-01-09T10:12:55.960Z,13.27
2023-01-09T10:15:38.551Z,9.10
2023-01-09T10:18:21.890Z,9.90
2023-01-09T10:20:57.744Z,9.40
2023-01-09T10:23:51.694Z,6.70
2023-01-09T10:26:28.525Z,10.20
2023-01-09T10:29:36.401Z,14.87
2023-01-09T10:32:18.970Z,6.20
2023-01-09T10:34:57.641Z,14.87
2023-01-09T10:37:30.441Z,12.00
2023-01-09T10:40:05.788Z,11.00
2023-01-09T10:42:40.683Z,9.53
2023-01-09T10:45:22.076Z,7.17
2023-01-09T10:47:51.468Z,7.80
2023-01-09T10:50:24.235Z,8.73
2023-01-09T10:52:55.908Z,14.27
2023-01-09T10:55:34.260Z,6.63
2023-01-09T10:58:10.137Z,5.90
2023-01-09T11:00:40.502Z,11.00
2023-01-09T11:03:14.174Z,9.57
2023-01-09T11:05:44.285Z,5.37
2023-01-09T11:08:23.249Z,5.57
2023-01-09T11:10:55.880Z,6.60
2023-01-09T11:13:27.077Z,7.03
2023-01-09T11:16:05.696Z,7.40
2023-01-09T11:18:36.437Z,6.40
2023-01-09T11:21:33.027Z,12.33
2023-01-09T11:24:28.880Z,4.63
2023-01-09T11:27:33.901Z,7.67
2023-01-09T11:30:19.987Z,5.70
2023-01-09T11:32:50.120Z,5.83
2023-01-09T11:35:23.690Z,5.90
2023-01-09T11:38:03.339Z,7.93
2023-01-09T11:40:45.822Z,10.50
2023-01-09T11:43:19.659Z,8.07
2023-01-09T11:46:01.227Z,6.47
2023-01-09T11:48:34.150Z,7.17
2023-01-09T11:51:06.711Z,13.50
2023-01-09T11:53:58.377Z,10.73
2023-01-09T11:56:27.755Z,8.83
2023-01-09T11:58:56.739Z,8.70
2023-01-09T12:01:58.972Z,10.73
2023-01-09T12:04:33.229Z,4.30
2023-01-09T12:07:37.180Z,8.07
2023-01-09T12:10:24.454Z,13.10
2023-01-09T12:13:01.959Z,2.70
2023-01-09T12:15:37.363Z,5.23
2023-01-09T12:18:32.733Z,8.53
2023-01-09T12:21:17.734Z,4.83
2023-01-09T12:24:05.019Z,8.07
2023-01-09T12:26:37.801Z,9.07
2023-01-09T12:29:57.098Z,4.10
2023-01-09T12:32:38.320Z,8.37
2023-01-09T12:35:21.274Z,10.77
2023-01-09T12:38:07.299Z,7.47
2023-01-09T12:41:09.238Z,7.77
2023-01-09T12:43:50.547Z,8.40
2023-01-09T12:46:21.941Z,5.63
2023-01-09T12:49:18.323Z,6.47
2023-01-09T12:51:53.020Z,7.30
2023-01-09T12:54:33.579Z,7.83
2023-01-09T12:57:07.478Z,11.70
2023-01-09T12:59:41.190Z,9.37
2023-01-09T13:02:20.718Z,7.90
2023-01-09T13:04:55.729Z,11.93
2023-01-09T13:07:31.228Z,18.60
2023-01-09T13:10:07.606Z,7.03
2023-01-09T13:12:40.481Z,6.93
2023-01-09T13:15:25.641Z,7.00
2023-01-09T13:17:59.810Z,6.00
2023-01-09T13:20:34.941Z,16.93
2023-01-09T13:23:07.556Z,14.37
2023-01-09T13:25:46.560Z,9.63
2023-01-09T13:28:21.918Z,7.17
2023-01-09T13:31:03.256Z,9.30
2023-01-09T13:33:35.669Z,6.17
2023-01-09T13:36:06.326Z,9.33
2023-01-09T13:38:40.316Z,6.57
2023-01-09T13:41:35.186Z,6.77
2023-01-09T13:44:07.193Z,10.80
2023-01-09T13:46:39.465Z,11.87
2023-01-09T13:49:29.751Z,9.57
2023-01-09T13:52:01.230Z,8.87
2023-01-09T13:55:03.774Z,10.23
2023-01-09T13:57:34.820Z,6.33
2023-01-09T14:00:44.741Z,13.27
2023-01-09T14:03:20.400Z,8.07
2023-01-09T14:06:17.518Z,11.33
2023-01-09T14:08:48.912Z,9.80
2023-01-09T14:11:27.295Z,10.37
2023-01-09T14:14:08.180Z,6.77
2023-01-09T14:16:39.038Z,7.60
2023-01-09T14:19:30.940Z,7.20
2023-01-09T14:22:01.406Z,8.17
2023-01-09T14:24:34.162Z,7.03
2023-01-09T14:27:04.788Z,9.50
2023-01-09T14:29:45.844Z,9.50
2023-01-09T14:32:51.513Z,10.37
2023-01-09T14:35:41.475Z,8.33
2023-01-09T14:38:27.050Z,8.33
2023-01-09T14:41:00.554Z,7.23
2023-01-09T14:43:45.068Z,5.83
2023-01-09T14:46:18.335Z,8.33
2023-01-09T14:49:04.158Z,8.27
2023-01-09T14:51:36.811Z,10.70
2023-01-09T14:54:25.871Z,9.00
2023-01-09T14:56:54.975Z,7.77
2023-01-09T14:59:26.683Z,8.77
2023-01-09T15:01:58.700Z,11.07
2023-01-09T15:04:34.929Z,11.30
2023-01-09T15:07:05.955Z,10.13
2023-01-09T15:09:44.280Z,8.37
2023-01-09T15:12:20.713Z,10.10
2023-01-09T15:14:56.259Z,7.40
2023-01-09T15:17:28.591Z,7.70
2023-01-09T15:19:59.976Z,9.63
2023-01-09T15:22:31.321Z,5.83
2023-01-09T15:25:13.136Z,10.43
2023-01-09T15:27:49.578Z,14.57
2023-01-09T15:30:28.146Z,10.93
2023-01-09T15:32:58.637Z,11.83
2023-01-09T15:35:29.502Z,10.43
2023-01-09T15:37:59.189Z,10.87
2023-01-09T15:40:34.006Z,10.20
2023-01-09T15:43:04.115Z,8.13
2023-01-09T15:45:38.427Z,6.00
2023-01-09T15:48:23.127Z,6.83
2023-01-09T15:50:55.050Z,5.60
2023-01-09T15:53:26.378Z,8.23
2023-01-09T15:56:23.821Z,7.90
2023-01-09T15:58:54.462Z,5.47
2023-01-09T16:01:33.670Z,4.67
2023-01-09T16:04:08.372Z,5.70
2023-01-09T16:06:45.239Z,6.60
2023-01-09T16:09:20.956Z,6.37
2023-01-09T16:11:53.344Z,8.27
2023-01-09T16:14:27.407Z,9.17
2023-01-09T16:17:04.239Z,6.47
2023-01-09T16:19:44.685Z,8.40
2023-01-09T16:22:21.590Z,10.10
2023-01-09T16:24:53.505Z,9.00
2023-01-09T16:27:28.664Z,6.07
2023-01-09T16:29:59.530Z,10.53
2023-01-09T16:32:31.998Z,8.97
2023-01-09T16:35:06.071Z,9.30
2023-01-09T16:37:37.295Z,6.33
2023-01-09T16:40:32.016Z,10.50
2023-01-09T16:43:01.717Z,7.60
2023-01-09T16:45:34.140Z,9.40
2023-01-09T16:48:12.423Z,10.83
2023-01-09T16:50:42.379Z,11.47
2023-01-09T16:53:16.629Z,9.53
2023-01-09T16:55:46.903Z,12.37
2023-01-09T16:58:18.616Z,10.43
2023-01-09T17:00:48.137Z,9.20
2023-01-09T17:03:20.205Z,9.30
2023-01-09T17:05:52.150Z,11.43
2023-01-09T17:08:23.781Z,11.80
2023-01-09T17:10:53.950Z,10.33
2023-01-09T17:13:23.601Z,12.20
2023-01-09T17:15:53.780Z,12.07
2023-01-09T17:18:25.560Z,11.67
2023-01-09T17:20:56.191Z,9.93
2023-01-09T17:23:26.570Z,11.50
2023-01-09T17:26:15.398Z,14.63
2023-01-09T17:28:48.658Z,22.37
2023-01-09T17:31:18.205Z,18.73
2023-01-09T17:33:48.753Z,15.23
2023-01-09T17:36:24.181Z,15.30
2023-01-09T17:38:55.009Z,21.97
2023-01-09T17:41:25.326Z,18.27
2023-01-09T17:43:54.845Z,17.83
2023-01-09T17:46:28.400Z,13.67
2023-01-09T17:49:00.170Z,15.10
2023-01-09T17:51:30.009Z,14.07
2023-01-09T17:53:59.787Z,16.80
2023-01-09T17:56:32.046Z,13.73
2023-01-09T17:59:02.005Z,11.70
2023-01-09T18:01:31.201Z,11.90
2023-01-09T18:04:01.771Z,14.60
2023-01-09T18:06:30.869Z,15.53
2023-01-09T18:08:59.936Z,14.33
2023-01-09T18:11:29.000Z,9.87
2023-01-09T18:13:58.040Z,15.90
2023-01-09T18:16:28.869Z,11.50
2023-01-09T18:18:59.296Z,12.77
2023-01-09T18:21:30.551Z,15.20
2023-01-09T18:24:01.361Z,12.17
2023-01-09T18:26:30.423Z,14.33
2023-01-09T18:29:00.939Z,12.33
2023-01-09T18:31:31.250Z,12.80
2023-01-09T18:34:02.462Z,16.03
2023-01-09T18:36:33.731Z,15.77
2023-01-09T18:39:05.413Z,12.70
2023-01-09T18:41:34.559Z,12.17
2023-01-09T18:44:03.804Z,16.80
2023-01-09T18:46:33.044Z,13.30
2023-01-09T18:49:04.328Z,13.77
2023-01-09T18:51:36.377Z,13.60
2023-01-09T18:54:08.162Z,13.87
2023-01-09T18:56:37.526Z,14.87
2023-01-09T18:59:07.141Z,15.47
2023-01-09T19:01:36.955Z,17.53
2023-01-09T19:04:06.488Z,17.77
2023-01-09T19:06:37.656Z,14.10
2023-01-09T19:09:07.079Z,19.27
2023-01-09T19:11:36.107Z,16.67
2023-01-09T19:14:05.375Z,18.10
2023-01-09T19:16:34.483Z,18.93
2023-01-09T19:19:06.312Z,15.30
2023-01-09T19:21:37.252Z,16.30
2023-01-09T19:24:07.173Z,18.57
2023-01-09T19:26:36.283Z,20.20
2023-01-09T19:29:05.607Z,19.13
2023-01-09T19:31:35.359Z,23.03
2023-01-09T19:34:04.531Z,22.27
2023-01-09T19:36:33.644Z,28.67
2023-01-09T19:39:05.170Z,32.57
2023-01-09T19:41:34.204Z,24.07
2023-01-09T19:44:05.080Z,19.67
2023-01-09T19:46:35.405Z,26.47
2023-01-09T19:49:06.072Z,26.07
2023-01-09T19:51:35.530Z,29.43
2023-01-09T19:56:37.886Z,21.23
2023-01-09T19:59:08.189Z,20.63
2023-01-09T20:01:41.532Z,25.90
2023-01-09T20:04:14.965Z,20.90
2023-01-09T20:06:46.467Z,21.23
2023-01-09T20:09:21.430Z,26.17
2023-01-09T20:11:50.797Z,23.10
2023-01-09T20:14:22.433Z,21.67
2023-01-09T20:16:53.942Z,23.47
2023-01-09T20:19:23.438Z,23.73
2023-01-09T20:21:52.771Z,22.30
2023-01-09T20:24:23.184Z,23.83
2023-01-09T20:26:52.454Z,23.70
2023-01-09T20:29:21.866Z,22.80
2023-01-09T20:31:51.126Z,22.87
2023-01-09T20:34:20.376Z,22.13
2023-01-09T20:36:49.522Z,22.50
2023-01-09T20:39:18.577Z,22.97
2023-01-09T20:41:49.204Z,22.63
2023-01-09T20:44:18.284Z,24.17
2023-01-09T20:46:48.117Z,21.43
2023-01-09T20:49:19.394Z,21.93
2023-01-09T20:51:49.850Z,21.10
2023-01-09T20:54:21.492Z,20.77
2023-01-09T20:56:52.233Z,24.97
2023-01-09T20:59:22.244Z,25.93
2023-01-09T21:01:51.984Z,25.17
2023-01-09T21:04:21.391Z,35.30
2023-01-09T21:06:50.719Z,23.37
2023-01-09T21:09:20.305Z,26.73
2023-01-09T21:11:50.707Z,22.87
2023-01-09T21:14:20.235Z,21.10
2023-01-09T21:16:54.973Z,23.97
2023-01-09T21:19:26.965Z,26.20
2023-01-09T21:21:56.153Z,22.60
2023-01-09T21:24:25.231Z,31.50
2023-01-09T21:26:55.637Z,24.90
2023-01-09T21:29:24.714Z,26.57
2023-01-09T21:31:56.086Z,24.70
2023-01-09T21:34:26.591Z,23.37
2023-01-09T21:36:55.920Z,21.83
2023-01-09T21:39:25.298Z,25.27
2023-01-09T21:42:13.247Z,24.93
2023-01-09T21:44:59.786Z,22.43
2023-01-09T21:47:32.279Z,23.97
2023-01-09T21:50:01.449Z,18.10
2023-01-09T21:52:30.499Z,22.50
2023-01-09T21:54:59.526Z,33.77
2023-01-09T21:57:29.953Z,24.60
2023-01-09T21:59:59.075Z,26.40
2023-01-09T22:02:28.119Z,24.10
2023-01-09T22:05:00.131Z,25.67
2023-01-09T22:07:30.775Z,22.07
2023-01-09T22:10:00.281Z,23.93
2023-01-09T22:12:30.827Z,22.70
2023-01-09T22:15:00.183Z,22.07
2023-01-09T22:17:30.222Z,21.93
2023-01-09T22:19:59.461Z,19.87
2023-01-09T22:22:28.533Z,29.33
2023-01-09T22:24:59.235Z,22.03
2023-01-09T22:27:28.284Z,21.83
2023-01-09T22:29:58.758Z,19.13
2023-01-09T22:32:27.839Z,18.47
2023-01-09T22:34:56.891Z,24.13
2023-01-09T22:37:25.909Z,21.20
2023-01-09T22:39:54.918Z,20.97
2023-01-09T22:42:24.061Z,18.97
2023-01-09T22:44:53.190Z,19.80
2023-01-09T22:47:23.579Z,19.23
2023-01-09T22:49:53.453Z,18.27
2023-01-09T22:52:23.674Z,17.93
2023-01-09T22:54:52.708Z,18.40
2023-01-09T22:57:21.771Z,22.03
2023-01-09T22:59:50.799Z,22.67
2023-01-09T23:02:20.122Z,19.53
2023-01-09T23:04:50.663Z,20.10
2023-01-09T23:07:19.710Z,26.70
2023-01-09T23:09:48.854Z,14.73
2023-01-09T23:12:17.997Z,24.37
2023-01-09T23:14:47.048Z,14.43
2023-01-09T23:17:16.111Z,20.30
2023-01-09T23:19:45.201Z,15.93
2023-01-09T23:22:15.648Z,19.90
2023-01-09T23:24:44.772Z,13.93
2023-01-09T23:27:13.817Z,18.10
2023-01-09T23:29:42.904Z,15.20
2023-01-09T23:32:13.913Z,19.10
2023-01-09T23:34:42.995Z,19.17
2023-01-09T23:37:12.147Z,24.40
2023-01-09T23:39:42.611Z,16.00
2023-01-09T23:42:30.093Z,29.57
2023-01-09T23:44:59.147Z,21.80
2023-01-09T23:47:28.405Z,18.03
2023-01-09T23:49:57.430Z,15.73
2023-01-09T23:52:26.468Z,21.10
2023-01-09T23:54:57.007Z,18.03
2023-01-09T23:57:26.527Z,15.10
2023-01-09T23:59:55.591Z,15.73
